KAOO/AOO METAR and TAF weather

Enter ICAO airport designator
Station Type Date Time Source
KAOO METAR 2019/08/22 02:53 UTC NOAA

KAOO 220253Z AUTO 00000KT 10SM CLR 21/18 A2998 RMK AO2 SLP143 T02110183 51012


Station Type Date Time Source
KAOO Decoded METAR 2019/08/22 02:53 UTC NOAA

Station name not available
Aug 21, 2019 - 10:53 PM EDT / 2019.08.22 0253 UTC
Wind: Calm:0
Visibility: 10 mile(s):0
Sky conditions: clear
Temperature: 70.0 F (21.1 C)
Dew Point: 64.9 F (18.3 C)
Relative Humidity: 84%
Pressure (altimeter): 29.98 in. Hg (1015 hPa)
Pressure tendency: 0.04 inches (1.2 hPa) higher than three hours ago
ob: KAOO 220253Z AUTO 00000KT 10SM CLR 21/18 A2998 RMK AO2 SLP143 T02110183 51012
cycle: 3

Station Type Date Time Source
KAOO TAF 2019/08/22 00:06 UTC NOAA

TAF KAOO 220003Z 2200/2224 26005KT P6SM SCT250
FM220700 VRB03KT 5SM BR SCT250
TEMPO 2209/2212 2SM BR BKN015
FM221300 26006KT P6SM FEW030
FM221500 26007KT P6SM SCT040
FM221700 26008KT P6SM VCSH BKN050

Example: see airport list